Tiempo atmosférico en la estación meteorológica de Quintana del Castillo, Villameca, León (995 m.)



Fecha
DESCASC
Temp. máxima en grados centígrados (hora)
DESCASC
Temp. mínima en grados centígrados (hora)
DESCASC
Temp. media en grados centígrados
DESCASC
Racha de viento máxima en m/sg (hora)
DESCASC
Velocidad máxima media en intervalos de 10 minutos(hora)
DESCASC
Precipitaciones diarias en mm
DESCASC
Precipitaciones de 00:00 a 06:00 en mm
DESCASC
Precipitaciones de 06:00 a 12:00 en mm
DESCASC
Precipitaciones de 12:00 a 18:00 en mm
DESCASC
Precipitaciones de 18:00 a 24:00 en mm
DESCASC
13-10-2019 17.4 (00:10) 10.1 (08:40) 13.8 12.22 (00:20) 5.83 (00:10) 0.4 0 0 0.4 0
12-10-2019 23.9 (16:00) 10.1 (09:20) 17 15.28 (18:00) 8.06 (18:00) 0.2 0 0 0 0.2
11-10-2019 24.9 (16:50) 6.4 (07:20) 15.6 8.33 (17:00) 4.72 (17:20) 0 0 0 0 0
10-10-2019 21.3 (17:20) 4.6 (00:00) 12.9 5.83 (02:30) 4.72 (02:30) 0 0 0 0 0
09-10-2019 18.1 (16:40) 6.4 (00:00) 12.3 10 (16:20) 6.67 (16:20) 0 0 0 0 0
08-10-2019 22.3 (17:10) 11.1 (00:00) 16.7 12.78 (14:40) 8.61 (14:20) 0 0 0 0 0
07-10-2019 24.9 (17:10) 7.5 (00:00) 16.2 10 (16:10) 6.11 (16:10) 0 0 0 0 0
06-10-2019 21.9 (17:20) 9.4 (00:00) 15.6 11.11 (15:10) 7.5 (15:10) 0 0 0 0 0
05-10-2019 22.5 (16:40) 7.3 (00:00) 14.9 10.83 (17:00) 6.94 (19:30) 0 0 0 0 0
04-10-2019 22.8 (17:20) 13.1 (00:00) 17.9 9.72 (12:40) 6.11 (18:00) 0 0 0 0 0
03-10-2019 22.3 (17:20) 6 (00:00) 14.1 12.5 (19:40) 8.33 (13:40) 0 0 0 0 0
02-10-2019 19.8 (17:50) 6.8 (00:00) 13.3 10.83 (15:00) 5.83 (15:10) 0 0 0 0 0
01-10-2019 18.8 (17:20) 11.5 (00:00) 15.1 14.17 (15:20) 9.17 (15:30) 0 0 0 0 0
30-09-2019 24.9 (16:40) 13.5 (00:00) 19.2 8.61 (18:20) 5.28 (18:20) 0 0 0 0 0
29-09-2019 22.1 (17:40) 6.4 (00:00) 14.3 13.89 (13:50) 8.61 (13:30) 0 0 0 0 0
28-09-2019 23.4 (18:10) 5.8 (00:00) 14.6 7.22 (02:30) 4.44 (04:10) 0 0 0 0 0
27-09-2019 17.7 (16:30) 8.5 (00:00) 13.1 10.28 (15:50) 6.11 (18:30) 0 0 0 0 0
26-09-2019 21.8 (17:20) 9 (00:00) 15.4 11.67 (14:30) 8.33 (15:40) 0 0 0 0 0
25-09-2019 17.5 (18:10) 9.1 (00:00) 13.3 11.94 (15:40) 7.22 (16:20) 0 0 0 0 0
24-09-2019 18.4 (14:40) 10.9 (00:00) 14.6 13.33 (15:40) 8.89 (18:20) 2.6 0.2 2.4 0 0
23-09-2019 17.8 (16:40) 8.6 (00:00) 13.2 7.78 (00:50) 4.72 (18:40) 0 0 0 0 0
22-09-2019 17 (17:30) 9.4 (00:00) 13.2 13.06 (02:50) 6.67 (14:40) 0.6 0.6 0 0 0
21-09-2019 15.8 (00:00) 10.5 (00:00) 13.2 12.5 (23:40) 6.67 (23:40) 10 0 2.6 0 7.4
20-09-2019 24.2 (16:30) 11.4 (00:00) 17.8 9.44 (19:10) 4.44 (19:10) 0 0 0 0 0
19-09-2019 24.7 (17:00) 11.5 (00:00) 18.1 9.72 (17:40) 4.72 (18:40) 0 0 0 0 0
18-09-2019 24 (18:00) 10.8 (00:00) 17.4 9.72 (21:20) 7.22 (21:20) 5.8 4.2 0 0.2 1.4
17-09-2019 25.7 (14:40) 15.3 (00:00) 20.5 12.78 (17:30) 8.89 (17:40) 0 0 0 0 0
16-09-2019 24.3 (17:50) 12.9 (00:00) 18.6 7.5 (21:00) 4.17 (21:00) 3.4 3.4 0 0 0

Gráficas

Temp. máximas Temp. mínimas Temp. medias Precipitaciones Rachas de viento máximas Velocidades máximas media en intervalos de 10 minutos

Datos horarios

Fecha y hora oficial Temperatura (ºC) Velocidad del viento (km/h) Dirección del viento Racha (km/h) Dirección de racha Precipitación (mm) Presión (hPa) Tendencia (hPa) Humedad (%)
2019-10-15 23:00:00 8.2 3 Nordeste 8 Nordeste 0 -- -- 96
2019-10-15 22:00:00 8.2 4 Nordeste 7 Este 0 -- -- 95
2019-10-15 21:00:00 8.1 2 Oeste 14 Noroeste 0 -- -- 94
2019-10-15 20:00:00 8.2 7 Noroeste 27 Noroeste 0.2 -- -- 93
2019-10-15 19:00:00 8.6 12 Noroeste 26 Noroeste 0 -- -- 90
2019-10-15 18:00:00 9.1 10 Noroeste 23 Noroeste 0 -- -- 85
2019-10-15 17:00:00 9.9 2 Sudeste 24 Noroeste 0 -- -- 80
2019-10-15 16:00:00 10.3 14 Noroeste 32 Noroeste 0 -- -- 74
2019-10-15 15:00:00 9.5 19 Noroeste 28 Oeste 0 -- -- 78
2019-10-15 14:00:00 8.9 13 Oeste 32 Noroeste 0 -- -- 78
2019-10-15 13:00:00 8.9 22 Noroeste 33 Noroeste 0 -- -- 77
2019-10-15 12:00:00 7.7 13 Noroeste 33 Noroeste 0 -- -- 83
2019-10-15 11:00:00 6.8 16 Noroeste 32 Noroeste 0 -- -- 89
2019-10-15 10:00:00 6.5 11 Noroeste 38 Noroeste 0 -- -- 91
2019-10-15 09:00:00 5.5 17 Noroeste 25 Noroeste 0 -- -- 95
2019-10-15 08:00:00 5.4 14 Noroeste 22 Noroeste 0 -- -- 94
2019-10-15 07:00:00 5.1 13 Noroeste 31 Oeste 0 -- -- 93
2019-10-15 06:00:00 5.5 17 Noroeste 31 Noroeste 0 -- -- 90
2019-10-15 05:00:00 5.3 12 Noroeste 37 Noroeste 0 -- -- 91
2019-10-15 04:00:00 5.6 17 Noroeste 37 Noroeste 0.2 -- -- 92
2019-10-15 03:00:00 5.4 11 Norte 27 Noroeste 0 -- -- 92
2019-10-15 02:00:00 5.2 15 Noroeste 32 Noroeste 0 -- -- 90
2019-10-15 01:00:00 5 19 Noroeste 42 Noroeste 0 -- -- 91
2019-10-15 00:00:00 5.1 25 Noroeste 48 Noroeste 0.2 -- -- 91
2019-10-14 23:00:00 5.2 28 Noroeste 46 Noroeste 0.2 -- -- 92
2019-10-14 22:00:00 5.1 16 Noroeste 32 Noroeste 0 -- -- 93
2019-10-14 21:00:00 5.3 13 Noroeste 32 Noroeste 0 -- -- 90
2019-10-14 20:00:00 5.6 21 Noroeste 43 Noroeste 0 -- -- 89
2019-10-14 19:00:00 6.2 18 Noroeste 47 Noroeste 0.6 -- -- 88
2019-10-14 18:00:00 7.7 23 Noroeste 42 Noroeste 0 -- -- 86
2019-10-14 17:00:00 7.3 22 Noroeste 66 Noroeste 3 -- -- 86
2019-10-14 16:00:00 9.6 23 Oeste 58 Noroeste 0 -- -- 79
2019-10-14 15:00:00 9.2 5 Noroeste 21 Oeste 0 -- -- 91
2019-10-14 14:00:00 8.8 5 Oeste 20 Noroeste 1 -- -- 91
2019-10-14 13:00:00 8.5 9 Oeste 18 Oeste 1.6 -- -- 91
2019-10-14 12:00:00 9 5 Sudoeste 12 Sudoeste 0 -- -- 90
2019-10-14 11:00:00 8 0 Calma 5 Oeste 0 -- -- 95
2019-10-14 10:00:00 7.3 0 Calma 14 Noroeste 2.2 -- -- 93
2019-10-14 09:00:00 7.4 12 Noroeste 36 Noroeste 3.8 -- -- 90
2019-10-14 08:00:00 7.7 12 Noroeste 33 Oeste 3 -- -- 90
2019-10-14 07:00:00 8.3 17 Noroeste 37 Oeste 0 -- -- 91
2019-10-14 06:00:00 9.6 24 Oeste 49 Oeste 0.4 -- -- 87
2019-10-14 05:00:00 11.9 7 Sur 15 Sur 0 -- -- 81
2019-10-14 04:00:00 11.7 3 Este 10 Sur 0 -- -- 82
2019-10-14 03:00:00 12.2 5 Este 14 Nordeste 0 -- -- 79
2019-10-14 02:00:00 12.8 10 Nordeste 17 Nordeste 0 -- -- 78
2019-10-14 01:00:00 13 5 Sur 16 Sudoeste 0 -- -- 74
2019-10-14 00:00:00 13.7 8 Sudeste 21 Este 0 -- -- 73
2019-10-13 23:00:00 14.4 6 Sudeste 18 Este 0 -- -- 70
2019-10-13 22:00:00 15.2 6 Sur 30 Sudoeste 0 -- -- 63
2019-10-13 21:00:00 15.4 15 Sudoeste 31 Sudoeste 0 -- -- 63
2019-10-13 20:00:00 15.6 10 Sudoeste 26 Sudoeste 0 -- -- 68
2019-10-13 19:00:00 16.5 13 Sudoeste 27 Norte 0 -- -- 69
2019-10-13 18:00:00 16.6 11 Sudoeste 25 Oeste 0 -- -- 71
2019-10-13 17:00:00 16.2 14 Sudoeste 35 Sur 0 -- -- 74
2019-10-13 16:00:00 15.6 16 Sudoeste 36 Oeste 0 -- -- 76
2019-10-13 15:00:00 14.9 15 Sudoeste 31 Sudoeste 0 -- -- 79
2019-10-13 14:00:00 13.9 9 Sudoeste 23 Sudoeste 0.2 -- -- 89
2019-10-13 13:00:00 13.4 12 Sudoeste 32 Sudoeste 0.2 -- -- 86
2019-10-13 12:00:00 13.7 16 Sudoeste 33 Sudoeste 0 -- -- 80
2019-10-13 11:00:00 13.2 14 Sudoeste 28 Sudoeste 0 -- -- 83
2019-10-13 10:00:00 11.7 8 Este 21 Nordeste 0 -- -- 90
2019-10-13 09:00:00 10.2 5 Sudeste 13 Este 0 -- -- 92
2019-10-13 08:00:00 10.3 8 Este 15 Nordeste 0 -- -- 91
2019-10-13 07:00:00 10.6 4 Este 26 Sudoeste 0 -- -- 88
2019-10-13 06:00:00 11.5 8 Sur 18 Sudeste 0 -- -- 87
2019-10-13 05:00:00 11.7 6 Sur 14 Sur 0 -- -- 84
2019-10-13 04:00:00 13 7 Sudoeste 28 Sur 0 -- -- 78
2019-10-13 03:00:00 14.3 8 Sudoeste 23 Sudoeste 0 -- -- 71
2019-10-13 02:00:00 14.6 3 Nordeste 23 Sudoeste 0 -- -- 71
2019-10-13 01:00:00 16.3 14 Sudoeste 44 Oeste 0 -- -- 67
2019-10-13 00:00:00 17.3 18 Sudoeste 37 Sudoeste 0 -- -- 64
2019-10-12 23:00:00 14.9 4 Sur 11 Sudoeste 0 -- -- 76
2019-10-12 22:00:00 16.2 2 Este 8 Noroeste 0 -- -- 72
2019-10-12 21:00:00 18.1 3 Noroeste 24 Oeste 0 -- -- 63
2019-10-12 20:00:00 18.8 24 Oeste 53 Oeste 0.2 -- -- 59
2019-10-12 19:00:00 21.6 24 Oeste 47 Oeste 0 -- -- 44
2019-10-12 18:00:00 22.5 29 Oeste 55 Oeste 0 -- -- 41
2019-10-12 17:00:00 23.7 15 Sudoeste 42 Sudoeste 0 -- -- 43
2019-10-12 16:00:00 23.9 16 Sudoeste 44 Sudoeste 0 -- -- 42
2019-10-12 15:00:00 23 21 Sudoeste 46 Sudoeste 0 -- -- 44
2019-10-12 14:00:00 22.1 23 Sudoeste 48 Sudoeste 0 -- -- 49
2019-10-12 13:00:00 21.4 17 Sudoeste 33 Sudoeste 0 -- -- 53
2019-10-12 12:00:00 17.4 10 Sudeste 18 Sudeste 0 -- -- 67
2019-10-12 11:00:00 14.7 6 Este 13 Nordeste 0 -- -- 78
2019-10-12 10:00:00 10.6 6 Nordeste 12 Norte 0 -- -- 89
2019-10-12 09:00:00 10.3 7 Nordeste 13 Norte 0 -- -- 90
2019-10-12 08:00:00 11 4 Nordeste 14 Norte 0 -- -- 88
2019-10-12 07:00:00 10.8 5 Nordeste 13 Norte 0 -- -- 88
2019-10-12 06:00:00 11.3 3 Este 16 Norte 0 -- -- 85
2019-10-12 05:00:00 11.4 4 Nordeste 13 Norte 0 -- -- 83
2019-10-12 04:00:00 11.1 7 Nordeste 18 Norte 0 -- -- 83
2019-10-12 03:00:00 11 10 Nordeste 15 Norte 0 -- -- 83
2019-10-12 02:00:00 11 6 Nordeste 14 Norte 0 -- -- 83
2019-10-12 01:00:00 11.8 7 Nordeste 10 Nordeste 0 -- -- 79
2019-10-12 00:00:00 13.2 4 Nordeste 10 Norte 0 -- -- 76
2019-10-11 23:00:00 13.7 8 Nordeste 10 Nordeste 0 -- -- 73
2019-10-11 22:00:00 14.2 4 Este 9 Norte 0 -- -- 73
2019-10-11 21:00:00 17.2 5 Nordeste 12 Noroeste 0 -- -- 62
2019-10-11 20:00:00 20.4 9 Oeste 17 Noroeste 0 -- -- 51
2019-10-11 19:00:00 23 14 Oeste 25 Noroeste 0 -- -- 44
2019-10-11 18:00:00 24.2 15 Noroeste 28 Oeste 0 -- -- 40
2019-10-11 17:00:00 24.7 15 Noroeste 30 Oeste 0 -- -- 37
2019-10-11 16:00:00 24.2 4 Sur 17 Oeste 0 -- -- 37
2019-10-11 15:00:00 22.5 8 Sudoeste 18 Sur 0 -- -- 40
2019-10-11 14:00:00 21.4 5 Sudeste 16 Sudoeste 0 -- -- 40
2019-10-11 13:00:00 20.2 7 Sur 15 Sudoeste 0 -- -- 44
2019-10-11 12:00:00 17.6 4 Oeste 11 Sur 0 -- -- 48
2019-10-11 11:00:00 14 0 Calma 8 Norte 0 -- -- 61
2019-10-11 10:00:00 9.3 7 Norte 12 Nordeste 0 -- -- 75
2019-10-11 09:00:00 6.8 8 Nordeste 17 Norte 0 -- -- 83
2019-10-11 08:00:00 6.6 9 Nordeste 13 Nordeste 0 -- -- 83
2019-10-11 07:00:00 7.2 6 Nordeste 19 Norte 0 -- -- 81
2019-10-11 06:00:00 7.2 10 Nordeste 15 Norte 0 -- -- 79
2019-10-11 05:00:00 7.3 8 Nordeste 13 Norte 0 -- -- 80
2019-10-11 04:00:00 7.9 9 Nordeste 16 Norte 0 -- -- 78
2019-10-11 03:00:00 8.4 10 Nordeste 15 Norte 0 -- -- 77
2019-10-11 02:00:00 8.7 10 Norte 18 Norte 0 -- -- 75
2019-10-11 01:00:00 8.9 10 Nordeste 15 Norte 0 -- -- 75
2019-10-11 00:00:00 9.5 10 Nordeste 17 Nordeste 0 -- -- 74
2019-10-10 23:00:00 10.1 13 Nordeste 17 Nordeste 0 -- -- 71
2019-10-10 22:00:00 11.1 10 Nordeste 17 Norte 0 -- -- 67
2019-10-10 21:00:00 12.6 6 Nordeste 12 Norte 0 -- -- 66
2019-10-10 20:00:00 17.3 3 Nordeste 10 Sudoeste 0 -- -- 51
2019-10-10 19:00:00 20 5 Sur 12 Sur 0 -- -- 40
2019-10-10 18:00:00 20.9 6 Sur 19 Sudoeste 0 -- -- 37
2019-10-10 17:00:00 21 8 Sudoeste 17 Sudoeste 0 -- -- 36
2019-10-10 16:00:00 20.2 10 Sur 19 Sudeste 0 -- -- 38
2019-10-10 15:00:00 19.6 7 Sur 19 Sur 0 -- -- 41
2019-10-10 14:00:00 18.1 5 Sur 12 Sudeste 0 -- -- 47
2019-10-10 13:00:00 16 5 Sur 14 Sur 0 -- -- 56
2019-10-10 12:00:00 13.9 4 Sur 13 Sur 0 -- -- 64
2019-10-10 11:00:00 11.6 2 Este 9 Sur 0 -- -- 75
2019-10-10 10:00:00 7.3 5 Nordeste 14 Norte 0 -- -- 90
2019-10-10 09:00:00 4.9 8 Nordeste 15 Norte 0 -- -- 94
2019-10-10 08:00:00 4.8 6 Nordeste 17 Norte 0 -- -- 93
2019-10-10 07:00:00 4.8 10 Nordeste 14 Norte 0 -- -- 93
2019-10-10 06:00:00 4.9 7 Nordeste 11 Nordeste 0 -- -- 92
2019-10-10 05:00:00 5.6 7 Norte 10 Norte 0 -- -- 89
2019-10-10 04:00:00 6.2 8 Norte 14 Norte 0 -- -- 89
2019-10-10 03:00:00 6.8 10 Norte 21 Norte 0 -- -- 85
2019-10-10 02:00:00 7 12 Norte 16 Norte 0 -- -- 85
2019-10-10 01:00:00 8.9 2 Noroeste 19 Nordeste 0 -- -- 75
2019-10-10 00:00:00 9.8 8 Nordeste 16 Norte 0 -- -- 76
2019-10-09 23:00:00 10.1 9 Norte 15 Norte 0 -- -- 72
2019-10-09 22:00:00 11.5 8 Nordeste 20 Norte 0 -- -- 68
2019-10-09 21:00:00 12.5 13 Norte 19 Noroeste 0 -- -- 62
2019-10-09 20:00:00 14 13 Noroeste 31 Noroeste 0 -- -- 56
2019-10-09 19:00:00 16.9 7 Noroeste 30 Norte 0 -- -- 48
2019-10-09 18:00:00 17 18 Norte 35 Oeste 0 -- -- 47
2019-10-09 17:00:00 17.9 21 Noroeste 36 Noroeste 0 -- -- 46
2019-10-09 16:00:00 17.8 17 Noroeste 33 Noroeste 0 -- -- 47
2019-10-09 15:00:00 16.7 21 Noroeste 32 Oeste 0 -- -- 50
2019-10-09 14:00:00 15.4 18 Oeste 31 Oeste 0 -- -- 52
2019-10-09 13:00:00 14.4 16 Noroeste 27 Noroeste 0 -- -- 57
2019-10-09 12:00:00 11.7 12 Norte 21 Norte 0 -- -- 61
2019-10-09 11:00:00 9.1 16 Norte 26 Norte 0 -- -- 78
2019-10-09 10:00:00 7.7 11 Norte 21 Norte 0 -- -- 84
2019-10-09 09:00:00 6.7 9 Nordeste 27 Noroeste 0 -- -- 89
2019-10-09 08:00:00 7.1 9 Norte 17 Nordeste 0 -- -- 88
2019-10-09 07:00:00 8 7 Norte 22 Noroeste 0 -- -- 88
2019-10-09 06:00:00 8.5 10 Norte 16 Norte 0 -- -- 89
2019-10-09 05:00:00 9.9 4 Sudeste 22 Norte 0 -- -- 87
2019-10-09 04:00:00 11.4 8 Norte 22 Noroeste 0 -- -- 81
2019-10-09 03:00:00 11.2 3 Norte 17 Noroeste 0 -- -- 90
2019-10-09 02:00:00 11.5 2 Norte 14 Noroeste 0 -- -- 91
2019-10-09 01:00:00 12.1 11 Oeste 22 Oeste 0 -- -- 90
2019-10-09 00:00:00 13.4 16 Oeste 31 Noroeste 0 -- -- 88
2019-10-08 23:00:00 14.7 10 Noroeste 21 Noroeste 0 -- -- 86
2019-10-08 22:00:00 16.1 8 Oeste 19 Norte 0 -- -- 81
2019-10-08 21:00:00 16.8 8 Oeste 26 Noroeste 0 -- -- 78
2019-10-08 20:00:00 18.7 14 Noroeste 35 Noroeste 0 -- -- 71
2019-10-08 19:00:00 20.4 22 Noroeste 36 Noroeste 0 -- -- 64
2019-10-08 18:00:00 21.7 18 Noroeste 38 Oeste 0 -- -- 59
2019-10-08 17:00:00 22.1 24 Noroeste 46 Oeste 0 -- -- 57
2019-10-08 16:00:00 22.1 24 Noroeste 42 Noroeste 0 -- -- 57
2019-10-08 15:00:00 21.5 25 Noroeste 46 Noroeste 0 -- -- 58
2019-10-08 14:00:00 20.1 28 Noroeste 41 Noroeste 0 -- -- 63
2019-10-08 13:00:00 19.7 21 Noroeste 36 Noroeste 0 -- -- 62
2019-10-08 12:00:00 18.3 22 Noroeste 35 Noroeste 0 -- -- 58
2019-10-08 11:00:00 17.9 19 Noroeste 31 Oeste 0 -- -- 55
2019-10-08 10:00:00 13.8 4 Norte 11 Noroeste 0 -- -- 68
2019-10-08 09:00:00 11.1 6 Norte 10 Norte 0 -- -- 77
2019-10-08 08:00:00 11.8 3 Norte 12 Norte 0 -- -- 73
2019-10-08 07:00:00 13.8 7 Norte 22 Norte 0 -- -- 63
2019-10-08 06:00:00 13.9 0 Calma 22 Norte 0 -- -- 61
2019-10-08 05:00:00 12.4 8 Norte 14 Norte 0 -- -- 66
2019-10-08 04:00:00 12.5 5 Nordeste 14 Norte 0 -- -- 70
2019-10-08 03:00:00 13.8 13 Norte 21 Norte 0 -- -- 63
2019-10-08 02:00:00 13.1 10 Norte 14 Norte 0 -- -- 67
2019-10-08 01:00:00 13.8 7 Nordeste 13 Norte 0 -- -- 70
2019-10-08 00:00:00 16.4 4 Noroeste 18 Noroeste 0 -- -- 54
2019-10-07 23:00:00 16.5 2 Este 13 Nordeste 0 -- -- 56
2019-10-07 22:00:00 17.5 5 Nordeste 13 Nordeste 0 -- -- 54
2019-10-07 21:00:00 18.9 7 Nordeste 18 Noroeste 0 -- -- 48
2019-10-07 20:00:00 22 13 Noroeste 22 Noroeste 0 -- -- 38
2019-10-07 19:00:00 24.3 14 Noroeste 30 Noroeste 0 -- -- 34
2019-10-07 18:00:00 24.8 18 Noroeste 33 Oeste 0 -- -- 32
2019-10-07 17:00:00 24.8 22 Oeste 36 Oeste 0 -- -- 29
2019-10-07 16:00:00 24.8 19 Oeste 32 Oeste 0 -- -- 23
2019-10-07 15:00:00 23.8 21 Oeste 32 Oeste 0 -- -- 23
2019-10-07 14:00:00 23.2 17 Noroeste 31 Oeste 0 -- -- 23
2019-10-07 13:00:00 21.1 17 Oeste 28 Oeste 0 -- -- 27
2019-10-07 12:00:00 18.9 14 Oeste 23 Oeste 0 -- -- 37
2019-10-07 11:00:00 14.8 4 Sudoeste 7 Sudoeste 0 -- -- 65
2019-10-07 10:00:00 9.8 0 Calma 8 Nordeste 0 -- -- 75
2019-10-07 09:00:00 7.5 6 Nordeste 9 Nordeste 0 -- -- 81
2019-10-07 08:00:00 8.6 0 Calma 12 Oeste 0 -- -- 78
2019-10-07 07:00:00 10.1 4 Oeste 17 Norte 0 -- -- 69
2019-10-07 06:00:00 11.9 12 Norte 19 Norte 0 -- -- 65
2019-10-07 05:00:00 12.5 15 Norte 23 Norte 0 -- -- 65
2019-10-07 04:00:00 12.4 11 Norte 19 Noroeste 0 -- -- 64
2019-10-07 03:00:00 11.8 9 Norte 15 Norte 0 -- -- 64
2019-10-07 02:00:00 13.3 3 Nordeste 16 Norte 0 -- -- 62
2019-10-07 01:00:00 13.1 9 Nordeste 19 Norte 0 -- -- 68
2019-10-07 00:00:00 12.7 8 Norte 20 Norte 0 -- -- 65
2019-10-06 23:00:00 12 0 Calma 13 Oeste 0 -- -- 68
2019-10-06 22:00:00 14.2 2 Sur 9 Sudoeste 0 -- -- 64
2019-10-06 21:00:00 15.9 2 Nordeste 25 Noroeste 0 -- -- 49
2019-10-06 20:00:00 19 12 Noroeste 27 Noroeste 0 -- -- 40
2019-10-06 19:00:00 20.9 19 Noroeste 33 Oeste 0 -- -- 42
2019-10-06 18:00:00 21.5 20 Noroeste 33 Noroeste 0 -- -- 46
2019-10-06 17:00:00 21.6 15 Noroeste 36 Noroeste 0 -- -- 42
2019-10-06 16:00:00 21 22 Noroeste 40 Noroeste 0 -- -- 42
2019-10-06 15:00:00 20.5 25 Noroeste 37 Noroeste 0 -- -- 44
2019-10-06 14:00:00 19 21 Noroeste 34 Noroeste 0 -- -- 54
2019-10-06 13:00:00 18 18 Oeste 31 Noroeste 0 -- -- 66
2019-10-06 12:00:00 15.6 10 Norte 20 Norte 0 -- -- 76
2019-10-06 11:00:00 13.4 13 Norte 23 Norte 0 -- -- 85
2019-10-06 10:00:00 11.7 13 Norte 18 Nordeste 0 -- -- 90
2019-10-06 09:00:00 10.8 7 Norte 27 Norte 0 -- -- 90
2019-10-06 08:00:00 9.8 12 Norte 25 Norte 0 -- -- 91
2019-10-06 07:00:00 9.5 13 Norte 26 Norte 0 -- -- 91
2019-10-06 06:00:00 9.6 17 Norte 28 Norte 0 -- -- 92
2019-10-06 05:00:00 10.4 11 Norte 32 Norte 0 -- -- 87
2019-10-06 04:00:00 10.3 18 Norte 23 Norte 0 -- -- 89
2019-10-06 03:00:00 11 14 Norte 22 Norte 0 -- -- 87
2019-10-06 02:00:00 11.5 17 Norte 31 Norte 0 -- -- 83
2019-10-06 01:00:00 12 11 Norte 25 Norte 0 -- -- 80
2019-10-06 00:00:00 12.8 17 Norte 28 Norte 0 -- -- 75
2019-10-05 23:00:00 13.8 19 Nordeste 27 Nordeste 0 -- -- 70
2019-10-05 22:00:00 15.4 11 Norte 25 Norte 0 -- -- 68
2019-10-05 21:00:00 16.3 9 Norte 35 Noroeste 0 -- -- 66
2019-10-05 20:00:00 17.8 22 Noroeste 39 Noroeste 0 -- -- 61
2019-10-05 19:00:00 20.5 24 Noroeste 36 Noroeste 0 -- -- 51
2019-10-05 18:00:00 22.2 19 Noroeste 33 Noroeste 0 -- -- 36
2019-10-05 17:00:00 22.4 24 Noroeste 39 Noroeste 0 -- -- 35
2019-10-05 16:00:00 22.2 17 Noroeste 30 Oeste 0 -- -- 40
2019-10-05 15:00:00 21.8 13 Noroeste 24 Oeste 0 -- -- 46
2019-10-05 14:00:00 20.1 6 Sur 15 Sudoeste 0 -- -- 60
2019-10-05 13:00:00 17.9 5 Sudoeste 12 Oeste 0 -- -- 68
2019-10-05 12:00:00 15.8 6 Sudoeste 13 Sudoeste 0 -- -- 79
2019-10-05 11:00:00 13.6 2 Nordeste 8 Norte 0 -- -- 89
2019-10-05 10:00:00 10.6 5 Nordeste 12 Norte 0 -- -- 95
2019-10-05 09:00:00 8.6 9 Norte 14 Norte 0 -- -- 97
2019-10-05 08:00:00 7.3 6 Nordeste 10 Nordeste 0 -- -- 96
2019-10-05 07:00:00 8 6 Nordeste 10 Norte 0 -- -- 95
2019-10-05 06:00:00 8.7 5 Nordeste 13 Norte 0 -- -- 94
2019-10-05 05:00:00 9.3 7 Nordeste 11 Norte 0 -- -- 93
2019-10-05 04:00:00 10.6 6 Nordeste 11 Nordeste 0 -- -- 90
2019-10-05 03:00:00 11.8 3 Norte 6 Nordeste 0 -- -- 86
2019-10-05 02:00:00 12.6 0 Calma 21 Norte 0 -- -- 82
2019-10-05 01:00:00 13.1 13 Norte 24 Norte 0 -- -- 83
2019-10-05 00:00:00 13.5 14 Norte 21 Norte 0 -- -- 81
2019-10-04 23:00:00 14 10 Norte 14 Norte 0 -- -- 78
2019-10-04 22:00:00 14.7 6 Nordeste 11 Norte 0 -- -- 76
2019-10-04 21:00:00 16.1 4 Noroeste 28 Oeste 0 -- -- 70
2019-10-04 20:00:00 17.8 15 Noroeste 34 Oeste 0 -- -- 65
2019-10-04 19:00:00 21 16 Noroeste 32 Oeste 0 -- -- 55
2019-10-04 18:00:00 22 22 Oeste 33 Oeste 0 -- -- 48
2019-10-04 17:00:00 22.5 20 Noroeste 31 Noroeste 0 -- -- 43
2019-10-04 16:00:00 22.3 11 Oeste 27 Oeste 0 -- -- 44
2019-10-04 15:00:00 21 14 Oeste 30 Noroeste 0 -- -- 54
2019-10-04 14:00:00 19.9 16 Oeste 28 Noroeste 0 -- -- 60
2019-10-04 13:00:00 18.8 15 Oeste 35 Oeste 0 -- -- 64
2019-10-04 12:00:00 17.3 11 Noroeste 26 Oeste 0 -- -- 72
2019-10-04 11:00:00 16.7 14 Noroeste 27 Oeste 0 -- -- 77
2019-10-04 10:00:00 15.6 17 Noroeste 26 Noroeste 0 -- -- 84
2019-10-04 09:00:00 13.6 8 Norte 15 Norte 0 -- -- 91
2019-10-04 08:00:00 13.7 8 Noroeste 16 Noroeste 0 -- -- 94
2019-10-04 07:00:00 14.1 7 Noroeste 15 Noroeste 0 -- -- 91
2019-10-04 06:00:00 14.4 7 Noroeste 20 Noroeste 0 -- -- 91
2019-10-04 05:00:00 14.5 10 Norte 25 Norte 0 -- -- 91
2019-10-04 04:00:00 14.8 11 Noroeste 19 Noroeste 0 -- -- 91
2019-10-04 03:00:00 14.6 6 Nordeste 18 Nordeste 0 -- -- 92
2019-10-04 02:00:00 14.7 8 Norte 19 Nordeste 0 -- -- 90
2019-10-04 01:00:00 14.5 10 Nordeste 21 Este 0 -- -- 87
2019-10-04 00:00:00 14.8 9 Norte 15 Nordeste 0 -- -- 85
2019-10-03 23:00:00 14.9 13 Norte 20 Norte 0 -- -- 83
2019-10-03 22:00:00 15.5 3 Norte 43 Noroeste 0 -- -- 80
2019-10-03 21:00:00 16.8 25 Noroeste 41 Noroeste 0 -- -- 73
2019-10-03 20:00:00 18.3 23 Noroeste 45 Noroeste 0 -- -- 65
2019-10-03 19:00:00 20.6 28 Noroeste 44 Oeste 0 -- -- 47
2019-10-03 18:00:00 22.1 25 Noroeste 38 Norte 0 -- -- 41
2019-10-03 17:00:00 22.1 21 Noroeste 39 Oeste 0 -- -- 38
2019-10-03 16:00:00 21.2 24 Noroeste 41 Noroeste 0 -- -- 37
2019-10-03 15:00:00 20.6 20 Noroeste 40 Noroeste 0 -- -- 42
2019-10-03 14:00:00 18.2 23 Noroeste 43 Noroeste 0 -- -- 48
2019-10-03 13:00:00 17.4 18 Noroeste 34 Norte 0 -- -- 47
2019-10-03 12:00:00 15.9 16 Oeste 24 Noroeste 0 -- -- 62
2019-10-03 11:00:00 12.7 3 Este 8 Este 0 -- -- 82
2019-10-03 10:00:00 7 3 Sudoeste 11 Norte 0 -- -- 93
2019-10-03 09:00:00 6.2 6 Norte 14 Norte 0 -- -- 96
2019-10-03 08:00:00 6.1 8 Nordeste 12 Norte 0 -- -- 96
2019-10-03 07:00:00 6.5 6 Nordeste 13 Norte 0 -- -- 95
2019-10-03 06:00:00 6.8 8 Norte 14 Norte 0 -- -- 94
2019-10-03 05:00:00 7.2 4 Nordeste 12 Norte 0 -- -- 93
2019-10-03 04:00:00 7.8 6 Nordeste 10 Norte 0 -- -- 91
2019-10-03 03:00:00 8.1 5 Nordeste 9 Nordeste 0 -- -- 90
2019-10-03 02:00:00 9.5 5 Nordeste 13 Este 0 -- -- 83
2019-10-03 01:00:00 9 6 Nordeste 10 Nordeste 0 -- -- 86
2019-10-03 00:00:00 9.6 9 Norte 15 Norte 0 -- -- 80
2019-10-02 23:00:00 10.3 7 Nordeste 13 Norte 0 -- -- 78
2019-10-02 22:00:00 11.7 9 Norte 16 Norte 0 -- -- 72
2019-10-02 21:00:00 13.9 7 Norte 17 Norte 0 -- -- 66
2019-10-02 20:00:00 16.6 8 Noroeste 15 Noroeste 0 -- -- 55
2019-10-02 19:00:00 19.3 5 Oeste 18 Oeste 0 -- -- 48
2019-10-02 18:00:00 19.3 10 Noroeste 22 Oeste 0 -- -- 48
2019-10-02 17:00:00 19.2 12 Oeste 26 Oeste 0 -- -- 48
2019-10-02 16:00:00 18.3 12 Oeste 36 Oeste 0 -- -- 51
2019-10-02 15:00:00 17.2 20 Oeste 39 Oeste 0 -- -- 53
2019-10-02 14:00:00 16.2 9 Norte 26 Oeste 0 -- -- 59
2019-10-02 13:00:00 14.2 12 Norte 30 Oeste 0 -- -- 63
2019-10-02 12:00:00 13.1 10 Norte 30 Oeste 0 -- -- 68
2019-10-02 11:00:00 11.6 17 Noroeste 35 Oeste 0 -- -- 76
2019-10-02 10:00:00 9.9 6 Norte 18 Noroeste 0 -- -- 86
2019-10-02 09:00:00 7.5 5 Norte 11 Norte 0 -- -- 90
2019-10-02 08:00:00 6.8 9 Norte 13 Nordeste 0 -- -- 90
2019-10-02 07:00:00 7.1 6 Nordeste 13 Este 0 -- -- 89
2019-10-02 06:00:00 7 8 Norte 13 Norte 0 -- -- 87
2019-10-02 05:00:00 7.9 5 Norte 15 Norte 0 -- -- 85
2019-10-02 04:00:00 9.4 5 Norte 21 Noroeste 0 -- -- 86
2019-10-02 03:00:00 9.8 9 Norte 23 Noroeste 0 -- -- 85
2019-10-02 02:00:00 10.4 15 Noroeste 32 Oeste 0 -- -- 81
2019-10-02 01:00:00 11 15 Noroeste 30 Oeste 0 -- -- 78
2019-10-02 00:00:00 11.6 8 Norte 32 Noroeste 0 -- -- 76
2019-10-01 23:00:00 12 10 Noroeste 21 Norte 0 -- -- 74
2019-10-01 22:00:00 12.8 5 Nordeste 44 Noroeste 0 -- -- 70
2019-10-01 21:00:00 14.4 21 Noroeste 40 Noroeste 0 -- -- 62
2019-10-01 20:00:00 15.7 25 Noroeste 38 Oeste 0 -- -- 59
2019-10-01 19:00:00 17.2 19 Noroeste 43 Oeste 0 -- -- 54
2019-10-01 18:00:00 18.4 28 Oeste 48 Oeste 0 -- -- 52
2019-10-01 17:00:00 18.4 25 Noroeste 47 Noroeste 0 -- -- 55
2019-10-01 16:00:00 18.6 27 Noroeste 51 Oeste 0 -- -- 52
2019-10-01 15:00:00 18 27 Noroeste 44 Noroeste 0 -- -- 54
2019-10-01 14:00:00 17.2 19 Noroeste 49 Noroeste 0 -- -- 59
2019-10-01 13:00:00 15.9 14 Noroeste 48 Noroeste 0 -- -- 72
2019-10-01 12:00:00 14.8 27 Noroeste 43 Oeste 0 -- -- 78
2019-10-01 11:00:00 12.5 17 Noroeste 33 Noroeste 0 -- -- 93
2019-10-01 10:00:00 12.6 19 Norte 42 Noroeste 0 -- -- 91
2019-10-01 09:00:00 12.6 13 Noroeste 27 Noroeste 0 -- -- 87
2019-10-01 08:00:00 12.4 17 Noroeste 28 Oeste 0 -- -- 88
2019-10-01 07:00:00 12.9 15 Noroeste 24 Noroeste 0 -- -- 85
2019-10-01 06:00:00 13.3 11 Noroeste 30 Noroeste 0 -- -- 86
2019-10-01 05:00:00 13.8 18 Noroeste 39 Oeste 0 -- -- 86
2019-10-01 04:00:00 15.1 21 Noroeste 37 Noroeste 0 -- -- 89
2019-10-01 03:00:00 14.9 6 Norte 17 Noroeste 0 -- -- 86
2019-10-01 02:00:00 15.1 8 Norte 19 Norte 0 -- -- 84
2019-10-01 01:00:00 14.7 5 Nordeste 22 Noroeste 0 -- -- 82
2019-10-01 00:00:00 16.9 10 Noroeste 22 Noroeste 0 -- -- 74
2019-09-30 23:00:00 17.9 11 Noroeste 28 Noroeste 0 -- -- 68
2019-09-30 22:00:00 19.1 17 Noroeste 30 Oeste 0 -- -- 61
2019-09-30 21:00:00 20.2 16 Noroeste 29 Noroeste 0 -- -- 57
2019-09-30 20:00:00 21.7 11 Noroeste 26 Oeste 0 -- -- 53
2019-09-30 19:00:00 23.6 15 Noroeste 31 Oeste 0 -- -- 49
2019-09-30 18:00:00 24.1 11 Oeste 24 Oeste 0 -- -- 49
2019-09-30 17:00:00 23.5 8 Sudoeste 21 Oeste 0 -- -- 54
2019-09-30 16:00:00 24.3 9 Sudoeste 21 Oeste 0 -- -- 51
2019-09-30 15:00:00 23.2 7 Sudoeste 21 Sudoeste 0 -- -- 55
2019-09-30 14:00:00 21.4 8 Sudoeste 19 Sur 0 -- -- 62
2019-09-30 13:00:00 20.7 5 Sur 14 Sudoeste 0 -- -- 69
2019-09-30 12:00:00 18.3 5 Sudoeste 16 Sudoeste 0 -- -- 81
2019-09-30 11:00:00 16.4 7 Oeste 15 Oeste 0 -- -- 87
2019-09-30 10:00:00 14.6 5 Norte 15 Nordeste 0 -- -- 94
2019-09-30 09:00:00 13.6 9 Norte 17 Norte 0 -- -- 96
2019-09-30 08:00:00 13.6 2 Nordeste 13 Norte 0 -- -- 94
2019-09-30 07:00:00 14.1 8 Norte 13 Noroeste 0 -- -- 93
2019-09-30 06:00:00 14.1 9 Norte 15 Nordeste 0 -- -- 94
2019-09-30 05:00:00 13.9 8 Norte 16 Nordeste 0 -- -- 93
2019-09-30 04:00:00 13.8 4 Norte 10 Norte 0 -- -- 92
2019-09-30 03:00:00 13.8 4 Sudeste 16 Noroeste 0 -- -- 90
2019-09-30 02:00:00 14.7 7 Norte 21 Oeste 0 -- -- 89
2019-09-30 01:00:00 13.8 6 Norte 17 Noroeste 0 -- -- 92
2019-09-30 00:00:00 13.6 6 Norte 11 Norte 0 -- -- 90
2019-09-29 23:00:00 14.8 6 Norte 17 Noroeste 0 -- -- 85
2019-09-29 22:00:00 15.5 7 Oeste 17 Oeste 0 -- -- 81
2019-09-29 21:00:00 16.5 11 Oeste 24 Norte 0 -- -- 86
2019-09-29 20:00:00 17.4 13 Oeste 32 Noroeste 0 -- -- 86
2019-09-29 19:00:00 20.6 14 Noroeste 36 Noroeste 0 -- -- 66
2019-09-29 18:00:00 21.5 25 Noroeste 42 Noroeste 0 -- -- 59
2019-09-29 17:00:00 22 28 Noroeste 46 Noroeste 0 -- -- 56
2019-09-29 16:00:00 21.9 24 Oeste 47 Oeste 0 -- -- 55
2019-09-29 15:00:00 21.6 24 Oeste 48 Oeste 0 -- -- 53
2019-09-29 14:00:00 21.1 22 Oeste 50 Oeste 0 -- -- 50
2019-09-29 13:00:00 19.8 21 Noroeste 38 Oeste 0 -- -- 51
2019-09-29 12:00:00 19 19 Noroeste 31 Noroeste 0 -- -- 51
2019-09-29 11:00:00 16.2 13 Oeste 24 Oeste 0 -- -- 54
2019-09-29 10:00:00 12.3 9 Oeste 17 Oeste 0 -- -- 70
2019-09-29 09:00:00 8.4 3 Nordeste 10 Nordeste 0 -- -- 89
2019-09-29 08:00:00 8 3 Nordeste 12 Nordeste 0 -- -- 91
2019-09-29 07:00:00 7.3 7 Nordeste 12 Nordeste 0 -- -- 92
2019-09-29 06:00:00 6.7 6 Nordeste 12 Nordeste 0 -- -- 87
2019-09-29 05:00:00 7.1 7 Norte 15 Norte 0 -- -- 82
2019-09-29 04:00:00 7.5 12 Norte 15 Norte 0 -- -- 80
2019-09-29 03:00:00 9.2 13 Norte 18 Norte 0 -- -- 71
2019-09-29 02:00:00 9.7 12 Norte 15 Norte 0 -- -- 69
2019-09-29 01:00:00 9.5 7 Norte 12 Norte 0 -- -- 70
2019-09-29 00:00:00 10.1 8 Norte 15 Norte 0 -- -- 69
2019-09-28 23:00:00 10.6 6 Norte 10 Norte 0 -- -- 68
2019-09-28 22:00:00 12.1 8 Nordeste 15 Norte 0 -- -- 59
2019-09-28 21:00:00 15.1 8 Nordeste 19 Noroeste 0 -- -- 51
2019-09-28 20:00:00 20.3 10 Oeste 21 Oeste 0 -- -- 32
2019-09-28 19:00:00 22.5 13 Oeste 21 Oeste 0 -- -- 30
2019-09-28 18:00:00 23.2 7 Sudoeste 17 Oeste 0 -- -- 39
2019-09-28 17:00:00 22.6 8 Sudoeste 21 Sur 0 -- -- 41
2019-09-28 16:00:00 21.2 8 Sudoeste 15 Sur 0 -- -- 40
2019-09-28 15:00:00 19.3 5 Oeste 13 Sudoeste 0 -- -- 39
2019-09-28 14:00:00 16.5 4 Sudeste 12 Oeste 0 -- -- 65
2019-09-28 13:00:00 13.9 4 Sur 12 Sudoeste 0 -- -- 77
2019-09-28 12:00:00 11.4 3 Oeste 13 Sur 0 -- -- 88
2019-09-28 11:00:00 9.6 4 Sur 8 Sudoeste 0 -- -- 93
2019-09-28 10:00:00 7.2 5 Sudoeste 9 Oeste 0 -- -- 93
2019-09-28 09:00:00 6 5 Nordeste 9 Norte 0 -- -- 94
2019-09-28 08:00:00 6.2 6 Nordeste 12 Norte 0 -- -- 93
2019-09-28 07:00:00 7 5 Nordeste 16 Norte 0 -- -- 92
2019-09-28 06:00:00 8.1 7 Nordeste 14 Noroeste 0 -- -- 91
2019-09-28 05:00:00 9.4 5 Oeste 22 Norte 0 -- -- 87
2019-09-28 04:00:00 10.1 12 Norte 22 Nordeste 0 -- -- 88
2019-09-28 03:00:00 10.6 15 Nordeste 26 Norte 0 -- -- 90
2019-09-28 02:00:00 10.5 14 Nordeste 25 Norte 0 -- -- 91
2019-09-28 01:00:00 8.8 6 Este 13 Norte 0 -- -- 91
2019-09-28 00:00:00 10.6 8 Norte 10 Norte 0 -- -- 89
2019-09-27 23:00:00 11.9 3 Noroeste 15 Noroeste 0 -- -- 83
2019-09-27 22:00:00 12.9 5 Nordeste 26 Norte 0 -- -- 81
2019-09-27 21:00:00 14.6 14 Noroeste 27 Noroeste 0 -- -- 72
2019-09-27 20:00:00 15.9 13 Noroeste 28 Noroeste 0 -- -- 67
2019-09-27 19:00:00 16.8 11 Noroeste 35 Oeste 0 -- -- 68
2019-09-27 18:00:00 16.8 16 Noroeste 30 Noroeste 0 -- -- 69
2019-09-27 17:00:00 17.2 13 Noroeste 35 Oeste 0 -- -- 71
2019-09-27 16:00:00 16.7 20 Noroeste 37 Noroeste 0 -- -- 75
2019-09-27 15:00:00 14.9 14 Oeste 29 Oeste 0 -- -- 86
2019-09-27 14:00:00 13.8 9 Oeste 23 Oeste 0 -- -- 89
2019-09-27 13:00:00 13.6 13 Oeste 24 Oeste 0 -- -- 90
2019-09-27 12:00:00 14.6 12 Oeste 21 Oeste 0 -- -- 80
2019-09-27 11:00:00 13.5 6 Noroeste 16 Noroeste 0 -- -- 83
2019-09-27 10:00:00 11.1 8 Oeste 13 Oeste 0 -- -- 89
2019-09-27 09:00:00 10.1 3 Noroeste 10 Noroeste 0 -- -- 92
2019-09-27 08:00:00 9.5 3 Noroeste 12 Noroeste 0 -- -- 92
2019-09-27 07:00:00 8.6 8 Norte 19 Noroeste 0 -- -- 94
2019-09-27 06:00:00 9.4 14 Norte 20 Noroeste 0 -- -- 91
2019-09-27 05:00:00 9.6 15 Norte 25 Noroeste 0 -- -- 91
2019-09-27 04:00:00 9.9 17 Norte 22 Norte 0 -- -- 90
2019-09-27 03:00:00 9.6 13 Norte 23 Norte 0 -- -- 91
2019-09-27 02:00:00 10.7 12 Norte 22 Norte 0 -- -- 87
2019-09-27 01:00:00 9.5 15 Norte 19 Norte 0 -- -- 84
2019-09-27 00:00:00 10.8 11 Norte 18 Norte 0 -- -- 78
2019-09-26 23:00:00 12.2 6 Norte 16 Noroeste 0 -- -- 73
2019-09-26 22:00:00 15.4 8 Noroeste 25 Noroeste 0 -- -- 58
2019-09-26 21:00:00 16.7 13 Noroeste 24 Noroeste 0 -- -- 52
2019-09-26 20:00:00 19.1 12 Noroeste 28 Noroeste 0 -- -- 46
2019-09-26 19:00:00 21 17 Oeste 33 Oeste 0 -- -- 42
2019-09-26 18:00:00 21.6 21 Oeste 35 Oeste 0 -- -- 37
2019-09-26 17:00:00 21.6 20 Oeste 33 Oeste 0 -- -- 32
2019-09-26 16:00:00 21.3 22 Oeste 41 Oeste 0 -- -- 31
2019-09-26 15:00:00 20.5 27 Noroeste 42 Oeste 0 -- -- 35
2019-09-26 14:00:00 19.5 19 Oeste 35 Oeste 0 -- -- 35
2019-09-26 13:00:00 16.9 15 Noroeste 25 Oeste 0 -- -- 55
2019-09-26 12:00:00 13.6 14 Oeste 27 Oeste 0 -- -- 74
2019-09-26 11:00:00 11.9 14 Noroeste 24 Oeste 0 -- -- 84
2019-09-26 10:00:00 10.3 10 Oeste 21 Oeste 0 -- -- 90
2019-09-26 09:00:00 9.3 0 Calma 32 Norte 0 -- -- 91
2019-09-26 08:00:00 9.1 20 Norte 31 Norte 0 -- -- 94
2019-09-26 07:00:00 9.4 12 Noroeste 27 Norte 0 -- -- 91
2019-09-26 06:00:00 9.8 15 Norte 27 Noroeste 0 -- -- 90
2019-09-26 05:00:00 9.8 10 Norte 27 Norte 0 -- -- 91
2019-09-26 04:00:00 10.4 8 Norte 23 Norte 0 -- -- 89
2019-09-26 03:00:00 10.8 18 Norte 27 Norte 0 -- -- 86
2019-09-26 02:00:00 11.6 12 Noroeste 26 Noroeste 0 -- -- 81
2019-09-26 01:00:00 11.7 14 Norte 29 Oeste 0 -- -- 82
2019-09-26 00:00:00 11.7 9 Noroeste 32 Oeste 0 -- -- 82
2019-09-25 23:00:00 12.5 8 Noroeste 24 Noroeste 0 -- -- 80
2019-09-25 22:00:00 12.9 10 Norte 26 Noroeste 0 -- -- 80
2019-09-25 21:00:00 13.8 10 Noroeste 32 Noroeste 0 -- -- 75
2019-09-25 20:00:00 15.5 19 Noroeste 31 Noroeste 0 -- -- 68
2019-09-25 19:00:00 17.3 15 Noroeste 31 Oeste 0 -- -- 62
2019-09-25 18:00:00 17.3 19 Oeste 37 Oeste 0 -- -- 62
2019-09-25 17:00:00 16.2 19 Noroeste 41 Oeste 0 -- -- 64
2019-09-25 16:00:00 16.9 23 Noroeste 43 Oeste 0 -- -- 62
2019-09-25 15:00:00 16 16 Noroeste 38 Oeste 0 -- -- 66
2019-09-25 14:00:00 15.1 22 Noroeste 35 Oeste 0 -- -- 67
2019-09-25 13:00:00 14.6 16 Noroeste 30 Noroeste 0 -- -- 69
2019-09-25 12:00:00 13 13 Norte 32 Noroeste 0 -- -- 76
2019-09-25 11:00:00 11.8 17 Noroeste 31 Oeste 0 -- -- 79
2019-09-25 10:00:00 10.8 14 Noroeste 21 Noroeste 0 -- -- 85
2019-09-25 09:00:00 9.6 8 Norte 19 Noroeste 0 -- -- 88
2019-09-25 08:00:00 9.1 2 Sudoeste 12 Sudeste 0 -- -- 89
2019-09-25 07:00:00 9.5 5 Este 18 Noroeste 0 -- -- 88
2019-09-25 06:00:00 9.6 8 Noroeste 26 Oeste 0 -- -- 87
2019-09-25 05:00:00 9.5 6 Sur 19 Noroeste 0 -- -- 86
2019-09-25 04:00:00 9.7 11 Norte 26 Noroeste 0 -- -- 85
2019-09-25 03:00:00 9.4 9 Noroeste 29 Noroeste 0 -- -- 83
2019-09-25 02:00:00 10 19 Noroeste 39 Noroeste 0 -- -- 80
2019-09-25 01:00:00 10.6 21 Noroeste 40 Noroeste 0 -- -- 77
2019-09-25 00:00:00 11.1 14 Noroeste 35 Noroeste 0 -- -- 74
2019-09-24 23:00:00 11.7 19 Noroeste 44 Noroeste 0 -- -- 70
2019-09-24 22:00:00 12.6 21 Noroeste 41 Noroeste 0 -- -- 64
2019-09-24 21:00:00 13.3 18 Noroeste 35 Noroeste 0 -- -- 66
2019-09-24 20:00:00 15.2 13 Noroeste 34 Oeste 0 -- -- 67
2019-09-24 19:00:00 17 23 Oeste 47 Oeste 0 -- -- 58
2019-09-24 18:00:00 17.7 24 Noroeste 42 Noroeste 0 -- -- 57
2019-09-24 17:00:00 16.9 19 Noroeste 41 Oeste 0 -- -- 67
2019-09-24 16:00:00 18.2 24 Oeste 48 Oeste 0 -- -- 65
2019-09-24 15:00:00 17.6 18 Noroeste 38 Oeste 0 -- -- 77
2019-09-24 14:00:00 17.3 26 Oeste 47 Oeste 0 -- -- 79
2019-09-24 13:00:00 15.8 22 Oeste 42 Oeste 0 -- -- 91
2019-09-24 12:00:00 13.2 3 Sur 6 Sur 0.6 -- -- 96
2019-09-24 11:00:00 12.2 3 Sudoeste 9 Sur 0.4 -- -- 97
2019-09-24 10:00:00 12.3 4 Sudoeste 6 Sudoeste 0.4 -- -- 97
2019-09-24 09:00:00 12.1 3 Sur 5 Sudoeste 0.2 -- -- 96
2019-09-24 08:00:00 12.1 3 Sudoeste 6 Sudoeste 0.4 -- -- 96
2019-09-24 07:00:00 12.4 3 Sudoeste 19 Norte 0.4 -- -- 93
2019-09-24 06:00:00 13.2 11 Noroeste 20 Noroeste 0.2 -- -- 88
2019-09-24 05:00:00 14.1 9 Noroeste 22 Noroeste 0 -- -- 81
2019-09-24 04:00:00 14 13 Noroeste 24 Noroeste 0 -- -- 82
2019-09-24 03:00:00 11 5 Nordeste 9 Nordeste 0 -- -- 94
2019-09-24 02:00:00 11.6 4 Nordeste 8 Nordeste 0 -- -- 91
2019-09-24 01:00:00 12.8 0 Calma 5 Nordeste 0 -- -- 87
2019-09-24 00:00:00 13.6 0 Calma 5 Sudeste 0 -- -- 84
2019-09-23 23:00:00 14.5 2 Este 8 Noroeste 0 -- -- 77
2019-09-23 22:00:00 14.8 3 Sudoeste 20 Norte 0 -- -- 74
2019-09-23 21:00:00 14.5 10 Norte 18 Norte 0 -- -- 74
2019-09-23 20:00:00 14.9 12 Norte 20 Norte 0 -- -- 73
2019-09-23 19:00:00 15 15 Norte 22 Norte 0 -- -- 71
2019-09-23 18:00:00 14.6 13 Norte 26 Norte 0 -- -- 75
2019-09-23 17:00:00 17.8 5 Sudeste 14 Este 0 -- -- 59
2019-09-23 16:00:00 17.3 8 Sur 15 Sur 0 -- -- 60
2019-09-23 15:00:00 16.6 7 Sur 16 Sudoeste 0 -- -- 60
2019-09-23 14:00:00 16.1 8 Sudoeste 17 Sur 0 -- -- 62
2019-09-23 13:00:00 15.3 6 Sudoeste 15 Noroeste 0 -- -- 65
2019-09-23 12:00:00 13.3 6 Oeste 15 Sudoeste 0 -- -- 70
2019-09-23 11:00:00 12.4 3 Sur 10 Sudoeste 0 -- -- 76
2019-09-23 10:00:00 10.5 3 Norte 13 Noroeste 0 -- -- 86
2019-09-23 09:00:00 9.5 8 Norte 10 Norte 0 -- -- 90
2019-09-23 08:00:00 9.4 7 Norte 10 Noroeste 0 -- -- 90
2019-09-23 07:00:00 9.5 6 Norte 22 Noroeste 0 -- -- 88
2019-09-23 06:00:00 9.8 12 Noroeste 19 Norte 0 -- -- 85
2019-09-23 05:00:00 8.6 6 Oeste 13 Norte 0 -- -- 89
2019-09-23 04:00:00 9.3 3 Norte 10 Norte 0 -- -- 88
2019-09-23 03:00:00 9.8 2 Norte 12 Noroeste 0 -- -- 85
2019-09-23 02:00:00 10.7 7 Norte 27 Noroeste 0 -- -- 82
2019-09-23 01:00:00 11.2 13 Noroeste 28 Noroeste 0 -- -- 80
2019-09-23 00:00:00 11.8 13 Noroeste 32 Noroeste 0 -- -- 75
2019-09-22 23:00:00 12 12 Noroeste 23 Noroeste 0 -- -- 74
2019-09-22 22:00:00 12.7 7 Norte 27 Noroeste 0 -- -- 70
2019-09-22 21:00:00 13.4 16 Noroeste 26 Noroeste 0 -- -- 63
2019-09-22 20:00:00 14.7 15 Noroeste 37 Noroeste 0 -- -- 60
2019-09-22 19:00:00 15.6 10 Noroeste 36 Oeste 0 -- -- 58
2019-09-22 18:00:00 16.8 21 Oeste 36 Oeste 0 -- -- 50
2019-09-22 17:00:00 16.8 21 Oeste 36 Oeste 0 -- -- 52
2019-09-22 16:00:00 15.3 15 Noroeste 34 Oeste 0 -- -- 58
2019-09-22 15:00:00 15.7 15 Oeste 41 Oeste 0 -- -- 59
2019-09-22 14:00:00 14.1 23 Oeste 37 Noroeste 0 -- -- 63
2019-09-22 13:00:00 12.2 13 Noroeste 36 Oeste 0 -- -- 73
2019-09-22 12:00:00 11.5 21 Noroeste 34 Oeste 0 -- -- 76
2019-09-22 11:00:00 10.7 19 Noroeste 32 Noroeste 0 -- -- 82
2019-09-22 10:00:00 9.7 7 Oeste 31 Noroeste 0 -- -- 87
2019-09-22 09:00:00 9.8 15 Noroeste 36 Oeste 0 -- -- 89
2019-09-22 08:00:00 9.9 12 Noroeste 24 Oeste 0 -- -- 95
2019-09-22 07:00:00 9.7 13 Noroeste 23 Oeste 0 -- -- 95
2019-09-22 06:00:00 9.5 9 Oeste 14 Oeste 0.6 -- -- 96
2019-09-22 05:00:00 9.5 3 Noroeste 23 Noroeste 0 -- -- 93
2019-09-22 04:00:00 10.1 12 Noroeste 38 Noroeste 0 -- -- 88
2019-09-22 03:00:00 10.5 17 Noroeste 47 Noroeste 0 -- -- 85
2019-09-22 02:00:00 10.3 17 Noroeste 36 Noroeste 0 -- -- 84
2019-09-22 01:00:00 10.4 15 Noroeste 37 Norte 0 -- -- 85
2019-09-22 00:00:00 10.5 22 Noroeste 45 Noroeste 2.4 -- -- 92
2019-09-21 23:00:00 12.4 23 Noroeste 35 Noroeste 2.8 -- -- 96
2019-09-21 22:00:00 14.1 14 Sudoeste 25 Sudoeste 0.2 -- -- 98
2019-09-21 21:00:00 14.3 11 Sudoeste 29 Sudoeste 0 -- -- 97
2019-09-21 20:00:00 14.6 11 Sudoeste 35 Sudoeste 2 -- -- 97
2019-09-21 19:00:00 15.1 15 Sudoeste 33 Sudoeste 0 -- -- 93
2019-09-21 18:00:00 15.7 10 Sudoeste 32 Sur 0 -- -- 92
2019-09-21 17:00:00 15.1 9 Sudoeste 30 Sudoeste 0 -- -- 94
2019-09-21 16:00:00 14.9 12 Sudoeste 26 Sudoeste 0 -- -- 94
2019-09-21 15:00:00 14.3 9 Sur 21 Sur 0 -- -- 95
2019-09-21 14:00:00 13.9 12 Sudoeste 25 Sudoeste 0 -- -- 97
2019-09-21 13:00:00 13.7 9 Sur 23 Sur 0 -- -- 95
2019-09-21 12:00:00 13.5 8 Sur 17 Sur 1.6 -- -- 96
2019-09-21 11:00:00 13.3 6 Sur 14 Sudoeste 1 -- -- 93
2019-09-21 10:00:00 13.3 6 Sur 12 Sur 0 -- -- 88
2019-09-21 09:00:00 12.5 3 Sudeste 12 Sudeste 0 -- -- 88
2019-09-21 08:00:00 12.1 5 Sudeste 9 Nordeste 0 -- -- 88
2019-09-21 07:00:00 12.4 3 Sur 12 Sudoeste 0 -- -- 86
2019-09-21 06:00:00 12.9 6 Sudoeste 12 Sudoeste 0 -- -- 87
2019-09-21 05:00:00 13.9 3 Sudeste 9 Nordeste 0 -- -- 87
2019-09-21 04:00:00 14.7 5 Nordeste 7 Nordeste 0 -- -- 88
2019-09-21 03:00:00 14.9 3 Sur 9 Nordeste 0 -- -- 86
2019-09-21 02:00:00 14.4 3 Norte 10 Nordeste 0 -- -- 86
2019-09-21 01:00:00 14.3 4 Nordeste 10 Norte 0 -- -- 83
2019-09-21 00:00:00 15.8 6 Nordeste 10 Norte 0 -- -- 73
2019-09-20 23:00:00 15.3 8 Nordeste 10 Nordeste 0 -- -- 75
2019-09-20 22:00:00 16.2 4 Nordeste 6 Nordeste 0 -- -- 70
2019-09-20 21:00:00 19 0 Calma 14 Sudoeste 0 -- -- 58
2019-09-20 20:00:00 21.2 8 Sudoeste 34 Sudoeste 0 -- -- 43
2019-09-20 19:00:00 22.3 15 Sudoeste 33 Sudoeste 0 -- -- 39
2019-09-20 18:00:00 20.8 5 Sudoeste 25 Sudoeste 0 -- -- 64
2019-09-20 17:00:00 24.1 10 Sudoeste 29 Sur 0 -- -- 50
2019-09-20 16:00:00 22.9 10 Sudoeste 25 Sudeste 0 -- -- 53
2019-09-20 15:00:00 23.2 9 Sur 29 Sudeste 0 -- -- 55
2019-09-20 14:00:00 22.5 7 Sur 23 Sur 0 -- -- 58
2019-09-20 13:00:00 21.3 12 Sur 23 Sur 0 -- -- 60
2019-09-20 12:00:00 19.9 8 Sudeste 20 Sudeste 0 -- -- 65
2019-09-20 11:00:00 18 8 Sudeste 16 Sudeste 0 -- -- 71
2019-09-20 10:00:00 14.9 3 Nordeste 9 Nordeste 0 -- -- 85
2019-09-20 09:00:00 12.3 6 Nordeste 10 Norte 0 -- -- 93
2019-09-20 08:00:00 11.5 6 Nordeste 9 Nordeste 0 -- -- 93
2019-09-20 07:00:00 12 7 Nordeste 11 Norte 0 -- -- 91
2019-09-20 06:00:00 12.2 7 Nordeste 14 Norte 0 -- -- 91
2019-09-20 05:00:00 12.2 9 Nordeste 13 Norte 0 -- -- 91
2019-09-20 04:00:00 12.7 10 Norte 15 Norte 0 -- -- 88
2019-09-20 03:00:00 12.9 8 Norte 14 Norte 0 -- -- 87
2019-09-20 02:00:00 13 10 Norte 14 Nordeste 0 -- -- 85
2019-09-20 01:00:00 13.7 8 Norte 14 Norte 0 -- -- 81
2019-09-20 00:00:00 14 9 Nordeste 15 Norte 0 -- -- 82
2019-09-19 23:00:00 15.1 9 Nordeste 15 Norte 0 -- -- 76
2019-09-19 22:00:00 16.2 9 Nordeste 13 Norte 0 -- -- 73
2019-09-19 21:00:00 18.4 9 Norte 12 Norte 0 -- -- 64
2019-09-19 20:00:00 21 6 Noroeste 12 Norte 0 -- -- 53
2019-09-19 19:00:00 21.5 12 Norte 23 Norte 0 -- -- 51
2019-09-19 18:00:00 22 9 Norte 35 Noroeste 0 -- -- 49
2019-09-19 17:00:00 24.7 8 Sur 19 Sur 0 -- -- 44
2019-09-19 16:00:00 23.3 9 Sur 20 Sudoeste 0 -- -- 47
2019-09-19 15:00:00 23.9 8 Sudoeste 19 Sudoeste 0 -- -- 45
2019-09-19 14:00:00 22.8 6 Sudoeste 16 Sur 0 -- -- 52
2019-09-19 13:00:00 21.2 5 Sudoeste 13 Sur 0 -- -- 58
2019-09-19 12:00:00 19.3 3 Sur 10 Sur 0 -- -- 61
2019-09-19 11:00:00 17.4 3 Sudoeste 7 Sudoeste 0 -- -- 70
2019-09-19 10:00:00 14.2 3 Nordeste 10 Nordeste 0 -- -- 89
2019-09-19 09:00:00 11.9 5 Nordeste 12 Norte 0 -- -- 96
2019-09-19 08:00:00 11.5 8 Nordeste 12 Norte 0 -- -- 96
2019-09-19 07:00:00 11.8 8 Nordeste 13 Norte 0 -- -- 96
2019-09-19 06:00:00 12.1 10 Norte 13 Norte 0 -- -- 96
2019-09-19 05:00:00 12.5 8 Nordeste 14 Norte 0 -- -- 95
2019-09-19 04:00:00 12.7 5 Nordeste 12 Norte 0 -- -- 94
2019-09-19 03:00:00 13.3 5 Norte 11 Norte 0 -- -- 93
2019-09-19 02:00:00 13.8 9 Norte 13 Norte 0 -- -- 93
2019-09-19 01:00:00 14.4 8 Nordeste 16 Norte 0 -- -- 90
2019-09-19 00:00:00 15 12 Nordeste 17 Norte 0 -- -- 89
2019-09-18 23:00:00 15.7 11 Norte 17 Norte 0 -- -- 90
2019-09-18 22:00:00 16.3 13 Norte 35 Este 1.4 -- -- 87
2019-09-18 21:00:00 19.5 13 Este 22 Nordeste 0 -- -- 63
2019-09-18 20:00:00 21.9 6 Sudeste 24 Nordeste 0 -- -- 59
2019-09-18 19:00:00 23.9 3 Sur 13 Sudoeste 0 -- -- 48
2019-09-18 18:00:00 24 3 Sur 16 Sur 0 -- -- 50
2019-09-18 17:00:00 23.4 6 Este 27 Sudeste 0 -- -- 53
2019-09-18 16:00:00 23.5 7 Sudoeste 15 Sudeste 0 -- -- 53
2019-09-18 15:00:00 22.9 7 Sudoeste 15 Sur 0 -- -- 54
2019-09-18 14:00:00 21.2 5 Sudoeste 12 Sudoeste 0.2 -- -- 56
2019-09-18 13:00:00 20.1 4 Sur 11 Sur 0 -- -- 63
2019-09-18 12:00:00 17.4 4 Oeste 11 Oeste 0 -- -- 75
2019-09-18 11:00:00 14.8 0 Calma 15 Nordeste 0 -- -- 91
2019-09-18 10:00:00 12.7 2 Nordeste 8 Norte 0 -- -- 95
2019-09-18 09:00:00 11.9 4 Norte 14 Este 0 -- -- 95
2019-09-18 08:00:00 10.9 11 Norte 15 Norte 0 -- -- 96
2019-09-18 07:00:00 11.2 9 Norte 13 Norte 0 -- -- 96
2019-09-18 06:00:00 12.4 5 Nordeste 9 Nordeste 0 -- -- 94
2019-09-18 05:00:00 13.2 5 Norte 8 Norte 0 -- -- 95
2019-09-18 04:00:00 13.1 3 Sur 15 Sudoeste 0 -- -- 95
2019-09-18 03:00:00 14.2 6 Nordeste 16 Norte 0.6 -- -- 90
2019-09-18 02:00:00 14 6 Nordeste 17 Sudeste 2.4 -- -- 91
2019-09-18 01:00:00 14.7 3 Sudoeste 30 Sudeste 1.2 -- -- 91
2019-09-18 00:00:00 15.4 19 Norte 37 Norte 0 -- -- 83
2019-09-17 23:00:00 16 19 Noroeste 32 Oeste 0 -- -- 79
2019-09-17 22:00:00 16.3 12 Norte 19 Norte 0 -- -- 69
2019-09-17 21:00:00 17 7 Noroeste 20 Norte 0 -- -- 64